sensor_id;sensor_type;location;lat;lon;timestamp;pressure;altitude;pressure_sealevel;temperature;humidity
56270;BME280;42176;43.240;27.880;2023-03-18T00:01:50;100682.22;;;5.03;49.80
56270;BME280;42176;43.240;27.880;2023-03-18T00:04:16;100663.91;;;4.28;52.02
56270;BME280;42176;43.240;27.880;2023-03-18T00:06:42;100675.63;;;4.56;51.18
56270;BME280;42176;43.240;27.880;2023-03-18T00:09:07;100668.81;;;4.76;50.96
56270;BME280;42176;43.240;27.880;2023-03-18T00:11:33;100685.78;;;5.09;49.37
56270;BME280;42176;43.240;27.880;2023-03-18T00:14:00;100666.31;;;4.09;52.30
56270;BME280;42176;43.240;27.880;2023-03-18T00:16:25;100673.56;;;4.28;52.70
56270;BME280;42176;43.240;27.880;2023-03-18T00:18:51;100667.66;;;4.49;52.38
56270;BME280;42176;43.240;27.880;2023-03-18T00:21:17;100674.56;;;4.40;52.40
56270;BME280;42176;43.240;27.880;2023-03-18T00:23:43;100644.34;;;4.01;54.14
56270;BME280;42176;43.240;27.880;2023-03-18T00:26:08;100666.56;;;4.30;54.36
56270;BME280;42176;43.240;27.880;2023-03-18T00:28:35;100664.38;;;4.68;53.25
56270;BME280;42176;43.240;27.880;2023-03-18T00:31:06;100659.34;;;4.11;54.06
56270;BME280;42176;43.240;27.880;2023-03-18T00:33:37;100660.53;;;4.35;53.49
56270;BME280;42176;43.240;27.880;2023-03-18T00:36:05;100658.03;;;4.48;53.54
56270;BME280;42176;43.240;27.880;2023-03-18T00:38:31;100657.41;;;4.73;52.69
56270;BME280;42176;43.240;27.880;2023-03-18T00:40:58;100660.91;;;4.72;52.56
56270;BME280;42176;43.240;27.880;2023-03-18T00:43:37;100647.06;;;4.09;54.72
56270;BME280;42176;43.240;27.880;2023-03-18T00:46:18;100649.94;;;4.29;55.21
56270;BME280;42176;43.240;27.880;2023-03-18T00:48:45;100664.16;;;4.47;54.52
56270;BME280;42176;43.240;27.880;2023-03-18T00:51:12;100655.53;;;4.60;54.05
56270;BME280;42176;43.240;27.880;2023-03-18T00:53:41;100651.38;;;4.82;53.74
56270;BME280;42176;43.240;27.880;2023-03-18T00:56:08;100661.59;;;4.54;53.27
56270;BME280;42176;43.240;27.880;2023-03-18T00:58:34;100649.38;;;3.86;56.22
56270;BME280;42176;43.240;27.880;2023-03-18T01:01:01;100660.19;;;4.10;56.39
56270;BME280;42176;43.240;27.880;2023-03-18T01:03:26;100648.13;;;4.23;56.06
56270;BME280;42176;43.240;27.880;2023-03-18T01:05:55;100654.41;;;4.39;55.65
56270;BME280;42176;43.240;27.880;2023-03-18T01:08:21;100637.88;;;4.47;54.50
56270;BME280;42176;43.240;27.880;2023-03-18T01:10:48;100645.84;;;3.84;57.71
56270;BME280;42176;43.240;27.880;2023-03-18T01:13:14;100646.22;;;4.11;57.08
56270;BME280;42176;43.240;27.880;2023-03-18T01:15:40;100648.13;;;4.25;57.34
56270;BME280;42176;43.240;27.880;2023-03-18T01:18:07;100637.72;;;4.31;56.88
56270;BME280;42176;43.240;27.880;2023-03-18T01:20:36;100657.25;;;4.58;55.79
56270;BME280;42176;43.240;27.880;2023-03-18T01:23:02;100647.00;;;4.80;54.92
56270;BME280;42176;43.240;27.880;2023-03-18T01:25:28;100642.53;;;3.97;56.95
56270;BME280;42176;43.240;27.880;2023-03-18T01:27:53;100648.16;;;3.62;60.40
56270;BME280;42176;43.240;27.880;2023-03-18T01:30:20;100644.34;;;4.01;58.54
56270;BME280;42176;43.240;27.880;2023-03-18T01:32:47;100642.88;;;4.25;57.46
56270;BME280;42176;43.240;27.880;2023-03-18T01:35:14;100630.75;;;4.36;56.20
56270;BME280;42176;43.240;27.880;2023-03-18T01:37:39;100640.34;;;3.65;59.34
56270;BME280;42176;43.240;27.880;2023-03-18T01:40:07;100649.03;;;3.61;60.93
56270;BME280;42176;43.240;27.880;2023-03-18T01:42:33;100634.72;;;4.00;59.40
56270;BME280;42176;43.240;27.880;2023-03-18T01:45:21;100644.78;;;4.38;57.49
56270;BME280;42176;43.240;27.880;2023-03-18T01:47:48;100631.28;;;3.41;61.15
56270;BME280;42176;43.240;27.880;2023-03-18T01:50:17;100645.69;;;3.71;62.01
56270;BME280;42176;43.240;27.880;2023-03-18T01:52:45;100649.44;;;3.92;60.74
56270;BME280;42176;43.240;27.880;2023-03-18T01:55:18;100637.28;;;3.95;59.18
56270;BME280;42176;43.240;27.880;2023-03-18T01:57:44;100645.66;;;3.68;61.59
56270;BME280;42176;43.240;27.880;2023-03-18T02:00:11;100647.69;;;3.88;61.61
56270;BME280;42176;43.240;27.880;2023-03-18T02:02:40;100650.59;;;4.13;59.50
56270;BME280;42176;43.240;27.880;2023-03-18T02:05:08;100650.69;;;4.19;58.94
56270;BME280;42176;43.240;27.880;2023-03-18T02:07:36;100654.31;;;3.09;63.05
56270;BME280;42176;43.240;27.880;2023-03-18T02:10:08;100662.88;;;2.98;64.92
56270;BME280;42176;43.240;27.880;2023-03-18T02:12:40;100651.94;;;3.23;63.74
56270;BME280;42176;43.240;27.880;2023-03-18T02:15:09;100655.00;;;3.52;62.66
56270;BME280;42176;43.240;27.880;2023-03-18T02:17:41;100660.25;;;3.52;61.50
56270;BME280;42176;43.240;27.880;2023-03-18T02:23:00;100659.09;;;3.33;64.09
56270;BME280;42176;43.240;27.880;2023-03-18T02:25:33;100649.75;;;3.50;62.75
56270;BME280;42176;43.240;27.880;2023-03-18T02:28:04;100649.88;;;3.58;61.60
56270;BME280;42176;43.240;27.880;2023-03-18T02:30:36;100644.72;;;3.66;61.39
56270;BME280;42176;43.240;27.880;2023-03-18T02:33:04;100644.84;;;3.75;60.65
56270;BME280;42176;43.240;27.880;2023-03-18T02:35:30;100636.59;;;3.47;60.54
56270;BME280;42176;43.240;27.880;2023-03-18T02:37:56;100638.50;;;2.53;64.70
56270;BME280;42176;43.240;27.880;2023-03-18T02:40:31;100636.44;;;2.37;67.53
56270;BME280;42176;43.240;27.880;2023-03-18T02:43:14;100641.38;;;2.67;66.06
56270;BME280;42176;43.240;27.880;2023-03-18T02:48:19;100651.78;;;3.13;64.20
56270;BME280;42176;43.240;27.880;2023-03-18T02:50:47;100647.50;;;3.18;63.96
56270;BME280;42176;43.240;27.880;2023-03-18T02:53:14;100654.69;;;3.30;63.21
56270;BME280;42176;43.240;27.880;2023-03-18T02:55:40;100655.25;;;3.12;62.53
56270;BME280;42176;43.240;27.880;2023-03-18T02:58:06;100646.28;;;2.06;68.31
56270;BME280;42176;43.240;27.880;2023-03-18T03:00:32;100653.03;;;1.94;71.13
56270;BME280;42176;43.240;27.880;2023-03-18T03:02:59;100649.25;;;2.23;70.20
56270;BME280;42176;43.240;27.880;2023-03-18T03:05:26;100651.94;;;2.70;67.11
56270;BME280;42176;43.240;27.880;2023-03-18T03:07:51;100658.97;;;1.87;69.72
56270;BME280;42176;43.240;27.880;2023-03-18T03:10:17;100645.84;;;1.46;73.80
56270;BME280;42176;43.240;27.880;2023-03-18T03:12:43;100648.38;;;1.81;73.38
56270;BME280;42176;43.240;27.880;2023-03-18T03:15:10;100638.44;;;2.06;71.28
56270;BME280;42176;43.240;27.880;2023-03-18T03:17:36;100642.34;;;2.26;69.65
56270;BME280;42176;43.240;27.880;2023-03-18T03:20:05;100640.56;;;2.70;65.98
56270;BME280;42176;43.240;27.880;2023-03-18T03:22:33;100640.28;;;1.69;69.74
56270;BME280;42176;43.240;27.880;2023-03-18T03:25:00;100655.94;;;1.30;72.27
56270;BME280;42176;43.240;27.880;2023-03-18T03:27:26;100638.50;;;1.67;72.77
56270;BME280;42176;43.240;27.880;2023-03-18T03:29:52;100635.66;;;1.96;70.82
56270;BME280;42176;43.240;27.880;2023-03-18T03:32:18;100600.97;;;2.07;67.20
56270;BME280;42176;43.240;27.880;2023-03-18T03:34:44;100639.44;;;1.70;70.28
56270;BME280;42176;43.240;27.880;2023-03-18T03:37:09;100634.81;;;1.99;69.52
56270;BME280;42176;43.240;27.880;2023-03-18T03:39:35;100644.59;;;2.52;65.71
56270;BME280;42176;43.240;27.880;2023-03-18T03:42:00;100599.88;;;1.54;68.41
56270;BME280;42176;43.240;27.880;2023-03-18T03:44:26;100648.88;;;1.64;70.69
56270;BME280;42176;43.240;27.880;2023-03-18T03:46:51;100637.19;;;1.88;69.77
56270;BME280;42176;43.240;27.880;2023-03-18T03:49:17;100648.41;;;2.24;66.49
56270;BME280;42176;43.240;27.880;2023-03-18T03:51:43;100648.69;;;1.55;69.94
56270;BME280;42176;43.240;27.880;2023-03-18T03:54:10;100632.78;;;1.46;70.92
56270;BME280;42176;43.240;27.880;2023-03-18T03:56:37;100649.16;;;1.77;69.92
56270;BME280;42176;43.240;27.880;2023-03-18T03:59:03;100639.91;;;2.36;67.23
56270;BME280;42176;43.240;27.880;2023-03-18T04:01:29;100643.16;;;1.81;67.35
56270;BME280;42176;43.240;27.880;2023-03-18T04:03:55;100653.25;;;1.27;70.53
56270;BME280;42176;43.240;27.880;2023-03-18T04:06:20;100656.44;;;1.52;71.25
56270;BME280;42176;43.240;27.880;2023-03-18T04:08:46;100650.75;;;1.70;70.25
56270;BME280;42176;43.240;27.880;2023-03-18T04:11:12;100649.75;;;2.05;67.44
56270;BME280;42176;43.240;27.880;2023-03-18T04:13:37;100660.22;;;1.28;70.49
56270;BME280;42176;43.240;27.880;2023-03-18T04:16:03;100655.09;;;1.31;72.29
56270;BME280;42176;43.240;27.880;2023-03-18T04:18:28;100650.66;;;1.65;70.20
56270;BME280;42176;43.240;27.880;2023-03-18T04:20:54;100653.50;;;2.16;66.84
56270;BME280;42176;43.240;27.880;2023-03-18T04:23:20;100651.22;;;1.52;67.74
56270;BME280;42176;43.240;27.880;2023-03-18T04:25:45;100650.97;;;1.04;71.40
56270;BME280;42176;43.240;27.880;2023-03-18T04:28:11;100647.59;;;1.45;70.96
56270;BME280;42176;43.240;27.880;2023-03-18T04:30:38;100647.19;;;1.66;68.97
56270;BME280;42176;43.240;27.880;2023-03-18T04:33:04;100653.03;;;1.94;66.33
56270;BME280;42176;43.240;27.880;2023-03-18T04:35:29;100646.13;;;1.20;69.40
56270;BME280;42176;43.240;27.880;2023-03-18T04:37:55;100641.94;;;1.28;70.53
56270;BME280;42176;43.240;27.880;2023-03-18T04:40:20;100648.00;;;1.64;68.76
56270;BME280;42176;43.240;27.880;2023-03-18T04:42:46;100643.91;;;2.17;65.83
56270;BME280;42176;43.240;27.880;2023-03-18T04:45:13;100646.44;;;1.72;66.07
56270;BME280;42176;43.240;27.880;2023-03-18T04:47:40;100649.09;;;1.35;68.80
56270;BME280;42176;43.240;27.880;2023-03-18T04:50:08;100647.38;;;1.76;68.21
56270;BME280;42176;43.240;27.880;2023-03-18T04:52:37;100650.06;;;2.20;66.43
56270;BME280;42176;43.240;27.880;2023-03-18T04:55:03;100659.94;;;2.81;63.59
56270;BME280;42176;43.240;27.880;2023-03-18T04:57:29;100660.00;;;2.84;61.77
56270;BME280;42176;43.240;27.880;2023-03-18T04:59:54;100655.38;;;2.23;65.16
56270;BME280;42176;43.240;27.880;2023-03-18T05:02:21;100656.16;;;2.64;65.14
56270;BME280;42176;43.240;27.880;2023-03-18T05:04:46;100667.84;;;3.35;61.71
56270;BME280;42176;43.240;27.880;2023-03-18T05:07:13;100668.28;;;2.60;63.59
56270;BME280;42176;43.240;27.880;2023-03-18T05:09:39;100666.72;;;2.24;67.74
56270;BME280;42176;43.240;27.880;2023-03-18T05:12:09;100675.34;;;2.63;66.59
56270;BME280;42176;43.240;27.880;2023-03-18T05:14:35;100664.53;;;2.93;65.56
56270;BME280;42176;43.240;27.880;2023-03-18T05:17:01;100665.97;;;3.25;63.84
56270;BME280;42176;43.240;27.880;2023-03-18T05:19:28;100654.94;;;3.46;62.78
56270;BME280;42176;43.240;27.880;2023-03-18T05:21:54;100665.03;;;3.79;62.12
56270;BME280;42176;43.240;27.880;2023-03-18T05:24:19;100662.97;;;4.20;59.98
56270;BME280;42176;43.240;27.880;2023-03-18T05:26:46;100659.72;;;4.44;58.77
56270;BME280;42176;43.240;27.880;2023-03-18T05:29:15;100663.72;;;4.90;57.19
56270;BME280;42176;43.240;27.880;2023-03-18T05:31:40;100670.31;;;5.43;55.88
56270;BME280;42176;43.240;27.880;2023-03-18T05:34:07;100663.47;;;5.65;54.41
56270;BME280;42176;43.240;27.880;2023-03-18T05:36:33;100664.50;;;5.95;52.40
56270;BME280;42176;43.240;27.880;2023-03-18T05:38:58;100661.47;;;4.45;56.06
56270;BME280;42176;43.240;27.880;2023-03-18T05:41:24;100668.34;;;3.66;59.38
56270;BME280;42176;43.240;27.880;2023-03-18T05:43:49;100662.88;;;4.15;60.04
56270;BME280;42176;43.240;27.880;2023-03-18T05:46:15;100662.50;;;5.51;54.63
56270;BME280;42176;43.240;27.880;2023-03-18T05:48:41;100656.94;;;6.74;50.52
56270;BME280;42176;43.240;27.880;2023-03-18T05:51:07;100671.06;;;7.29;48.19
56270;BME280;42176;43.240;27.880;2023-03-18T05:53:33;100661.81;;;5.84;51.49
56270;BME280;42176;43.240;27.880;2023-03-18T05:56:01;100663.97;;;6.75;50.71
56270;BME280;42176;43.240;27.880;2023-03-18T05:58:27;100664.84;;;7.80;47.42
56270;BME280;42176;43.240;27.880;2023-03-18T06:00:56;100658.56;;;8.24;46.20
56270;BME280;42176;43.240;27.880;2023-03-18T06:03:23;100664.34;;;9.01;44.82
56270;BME280;42176;43.240;27.880;2023-03-18T06:05:49;100668.53;;;9.29;44.49
56270;BME280;42176;43.240;27.880;2023-03-18T06:08:14;100661.22;;;9.59;43.40
56270;BME280;42176;43.240;27.880;2023-03-18T06:10:41;100656.28;;;10.08;42.54
56270;BME280;42176;43.240;27.880;2023-03-18T06:13:09;100658.47;;;10.48;41.20
56270;BME280;42176;43.240;27.880;2023-03-18T06:15:36;100669.25;;;10.99;40.28
56270;BME280;42176;43.240;27.880;2023-03-18T06:18:02;100666.81;;;11.41;39.48
56270;BME280;42176;43.240;27.880;2023-03-18T06:20:29;100674.47;;;12.08;38.52
56270;BME280;42176;43.240;27.880;2023-03-18T06:22:55;100665.81;;;12.44;38.26
56270;BME280;42176;43.240;27.880;2023-03-18T06:25:21;100666.72;;;12.43;38.28
56270;BME280;42176;43.240;27.880;2023-03-18T06:27:48;100658.84;;;12.77;37.56
56270;BME280;42176;43.240;27.880;2023-03-18T06:30:14;100687.81;;;12.91;37.47
56270;BME280;42176;43.240;27.880;2023-03-18T06:32:41;100679.22;;;13.89;35.88
56270;BME280;42176;43.240;27.880;2023-03-18T06:35:08;100675.91;;;14.43;35.27
56270;BME280;42176;43.240;27.880;2023-03-18T06:37:35;100689.88;;;15.12;33.93
56270;BME280;42176;43.240;27.880;2023-03-18T06:40:01;100675.16;;;14.98;33.29
56270;BME280;42176;43.240;27.880;2023-03-18T06:42:27;100652.75;;;14.75;33.91
56270;BME280;42176;43.240;27.880;2023-03-18T06:44:53;100677.69;;;15.85;32.27
56270;BME280;42176;43.240;27.880;2023-03-18T06:47:20;100679.03;;;16.46;30.97
56270;BME280;42176;43.240;27.880;2023-03-18T06:49:49;100674.28;;;17.00;30.85
56270;BME280;42176;43.240;27.880;2023-03-18T06:52:16;100693.84;;;17.25;29.29
56270;BME280;42176;43.240;27.880;2023-03-18T06:54:41;100692.75;;;16.61;29.89
56270;BME280;42176;43.240;27.880;2023-03-18T06:57:07;100684.84;;;16.34;30.88
56270;BME280;42176;43.240;27.880;2023-03-18T06:59:33;100682.25;;;17.02;29.94
56270;BME280;42176;43.240;27.880;2023-03-18T07:01:59;100685.25;;;18.02;28.72
56270;BME280;42176;43.240;27.880;2023-03-18T07:04:25;100680.91;;;17.77;28.76
56270;BME280;42176;43.240;27.880;2023-03-18T07:06:51;100684.53;;;17.56;29.02
56270;BME280;42176;43.240;27.880;2023-03-18T07:09:17;100669.28;;;17.13;29.75
56270;BME280;42176;43.240;27.880;2023-03-18T07:11:43;100680.38;;;17.26;29.77
56270;BME280;42176;43.240;27.880;2023-03-18T07:14:10;100656.44;;;16.77;30.56
56270;BME280;42176;43.240;27.880;2023-03-18T07:16:35;100663.63;;;17.43;29.70
56270;BME280;42176;43.240;27.880;2023-03-18T07:19:01;100652.28;;;16.46;31.07
56270;BME280;42176;43.240;27.880;2023-03-18T07:21:28;100644.47;;;16.16;31.58
56270;BME280;42176;43.240;27.880;2023-03-18T07:23:54;100648.09;;;15.90;32.09
56270;BME280;42176;43.240;27.880;2023-03-18T07:26:20;100657.63;;;14.31;34.56
56270;BME280;42176;43.240;27.880;2023-03-18T07:28:46;100665.03;;;14.20;35.25
56270;BME280;42176;43.240;27.880;2023-03-18T07:31:11;100653.44;;;14.21;35.25
56270;BME280;42176;43.240;27.880;2023-03-18T07:33:38;100653.63;;;14.14;35.34
56270;BME280;42176;43.240;27.880;2023-03-18T07:36:04;100681.78;;;14.25;35.27
56270;BME280;42176;43.240;27.880;2023-03-18T07:38:29;100667.84;;;14.76;35.03
56270;BME280;42176;43.240;27.880;2023-03-18T07:40:55;100668.03;;;15.54;33.47
56270;BME280;42176;43.240;27.880;2023-03-18T07:43:21;100666.56;;;15.71;32.99
56270;BME280;42176;43.240;27.880;2023-03-18T07:45:46;100691.19;;;15.27;33.11
56270;BME280;42176;43.240;27.880;2023-03-18T07:48:12;100681.75;;;15.43;33.42
56270;BME280;42176;43.240;27.880;2023-03-18T07:50:38;100683.31;;;15.22;34.10
56270;BME280;42176;43.240;27.880;2023-03-18T07:53:05;100649.31;;;15.54;34.01
56270;BME280;42176;43.240;27.880;2023-03-18T07:55:30;100671.88;;;14.90;34.77
56270;BME280;42176;43.240;27.880;2023-03-18T07:57:56;100670.38;;;15.36;34.45
56270;BME280;42176;43.240;27.880;2023-03-18T08:00:21;100681.06;;;15.10;35.11
56270;BME280;42176;43.240;27.880;2023-03-18T08:02:47;100672.19;;;14.49;36.62
56270;BME280;42176;43.240;27.880;2023-03-18T08:05:12;100679.03;;;13.62;38.20
56270;BME280;42176;43.240;27.880;2023-03-18T08:07:38;100687.34;;;12.72;40.18
56270;BME280;42176;43.240;27.880;2023-03-18T08:10:04;100692.16;;;11.59;42.98
56270;BME280;42176;43.240;27.880;2023-03-18T08:12:30;100694.16;;;10.88;44.66
56270;BME280;42176;43.240;27.880;2023-03-18T08:14:56;100701.84;;;10.43;46.32
56270;BME280;42176;43.240;27.880;2023-03-18T08:17:22;100694.00;;;10.29;47.25
56270;BME280;42176;43.240;27.880;2023-03-18T08:19:47;100690.06;;;10.64;47.15
56270;BME280;42176;43.240;27.880;2023-03-18T08:22:14;100683.38;;;11.01;46.40
56270;BME280;42176;43.240;27.880;2023-03-18T08:24:40;100695.88;;;10.92;46.34
56270;BME280;42176;43.240;27.880;2023-03-18T08:27:06;100696.84;;;10.87;46.97
56270;BME280;42176;43.240;27.880;2023-03-18T08:29:32;100704.19;;;10.66;48.40
56270;BME280;42176;43.240;27.880;2023-03-18T08:31:58;100682.69;;;10.88;47.56
56270;BME280;42176;43.240;27.880;2023-03-18T08:34:23;100694.94;;;10.95;47.72
56270;BME280;42176;43.240;27.880;2023-03-18T08:36:49;100665.53;;;11.65;45.63
56270;BME280;42176;43.240;27.880;2023-03-18T08:39:15;100684.28;;;12.05;45.33
56270;BME280;42176;43.240;27.880;2023-03-18T08:41:41;100699.13;;;12.60;44.44
56270;BME280;42176;43.240;27.880;2023-03-18T08:44:07;100697.56;;;13.66;42.14
56270;BME280;42176;43.240;27.880;2023-03-18T08:46:36;100678.34;;;14.21;40.88
56270;BME280;42176;43.240;27.880;2023-03-18T08:49:02;100703.25;;;11.31;46.58
56270;BME280;42176;43.240;27.880;2023-03-18T08:51:27;100725.00;;;9.22;53.19
56270;BME280;42176;43.240;27.880;2023-03-18T08:53:53;100719.50;;;9.55;53.24
56270;BME280;42176;43.240;27.880;2023-03-18T08:56:19;100706.97;;;9.74;52.64
56270;BME280;42176;43.240;27.880;2023-03-18T08:58:45;100714.13;;;9.63;53.57
56270;BME280;42176;43.240;27.880;2023-03-18T09:01:11;100700.22;;;9.36;54.37
56270;BME280;42176;43.240;27.880;2023-03-18T09:03:36;100707.38;;;9.21;55.00
56270;BME280;42176;43.240;27.880;2023-03-18T09:06:02;100710.88;;;9.26;55.33
56270;BME280;42176;43.240;27.880;2023-03-18T09:08:28;100722.22;;;9.42;54.93
56270;BME280;42176;43.240;27.880;2023-03-18T09:10:55;100718.63;;;9.51;54.43
56270;BME280;42176;43.240;27.880;2023-03-18T09:13:21;100701.94;;;9.43;55.30
56270;BME280;42176;43.240;27.880;2023-03-18T09:15:47;100696.75;;;9.27;55.20
56270;BME280;42176;43.240;27.880;2023-03-18T09:18:14;100703.84;;;9.22;56.41
56270;BME280;42176;43.240;27.880;2023-03-18T09:20:40;100696.91;;;9.06;56.99
56270;BME280;42176;43.240;27.880;2023-03-18T09:23:08;100694.41;;;8.87;57.19
56270;BME280;42176;43.240;27.880;2023-03-18T09:25:34;100703.94;;;9.07;57.24
56270;BME280;42176;43.240;27.880;2023-03-18T09:28:00;100710.88;;;9.29;56.61
56270;BME280;42176;43.240;27.880;2023-03-18T09:30:26;100697.50;;;9.43;56.19
56270;BME280;42176;43.240;27.880;2023-03-18T09:32:52;100691.19;;;9.65;55.62
56270;BME280;42176;43.240;27.880;2023-03-18T09:35:18;100699.00;;;9.75;55.55
56270;BME280;42176;43.240;27.880;2023-03-18T09:37:44;100697.44;;;9.56;55.23
56270;BME280;42176;43.240;27.880;2023-03-18T09:40:28;100697.38;;;9.60;55.53
56270;BME280;42176;43.240;27.880;2023-03-18T09:45:36;100685.97;;;9.54;56.67
56270;BME280;42176;43.240;27.880;2023-03-18T09:48:27;100685.72;;;9.80;56.75
56270;BME280;42176;43.240;27.880;2023-03-18T09:54:02;100680.34;;;9.86;57.49
56270;BME280;42176;43.240;27.880;2023-03-18T09:56:33;100681.28;;;9.82;57.80
56270;BME280;42176;43.240;27.880;2023-03-18T09:59:10;100675.28;;;9.65;57.89
56270;BME280;42176;43.240;27.880;2023-03-18T10:01:41;100687.56;;;9.72;58.72
56270;BME280;42176;43.240;27.880;2023-03-18T10:04:23;100694.00;;;9.43;60.20
56270;BME280;42176;43.240;27.880;2023-03-18T10:06:58;100687.84;;;9.41;60.25
56270;BME280;42176;43.240;27.880;2023-03-18T10:09:39;100688.78;;;9.34;60.67
56270;BME280;42176;43.240;27.880;2023-03-18T10:12:30;100687.94;;;9.28;61.39
56270;BME280;42176;43.240;27.880;2023-03-18T10:17:53;100684.66;;;8.95;64.04
56270;BME280;42176;43.240;27.880;2023-03-18T10:31:38;100654.69;;;8.90;64.86
56270;BME280;42176;43.240;27.880;2023-03-18T10:34:20;100636.28;;;8.75;65.30
56270;BME280;42176;43.240;27.880;2023-03-18T10:37:30;100661.13;;;8.49;67.45
56270;BME280;42176;43.240;27.880;2023-03-18T10:39:48;100648.00;;;8.24;68.29
56270;BME280;42176;43.240;27.880;2023-03-18T10:42:20;100640.06;;;8.29;68.98
56270;BME280;42176;43.240;27.880;2023-03-18T10:44:46;100643.53;;;8.34;69.38
56270;BME280;42176;43.240;27.880;2023-03-18T10:47:23;100656.75;;;8.35;69.64
56270;BME280;42176;43.240;27.880;2023-03-18T10:55:16;100652.38;;;8.33;69.32
56270;BME280;42176;43.240;27.880;2023-03-18T10:57:41;100645.34;;;8.22;69.04
56270;BME280;42176;43.240;27.880;2023-03-18T11:00:26;100646.25;;;8.14;69.37
56270;BME280;42176;43.240;27.880;2023-03-18T11:02:53;100637.50;;;8.05;70.45
56270;BME280;42176;43.240;27.880;2023-03-18T11:05:35;100634.03;;;7.82;71.99
56270;BME280;42176;43.240;27.880;2023-03-18T11:08:02;100644.56;;;7.97;71.55
56270;BME280;42176;43.240;27.880;2023-03-18T11:10:36;100642.78;;;8.04;71.69
56270;BME280;42176;43.240;27.880;2023-03-18T11:13:03;100645.41;;;8.04;70.71
56270;BME280;42176;43.240;27.880;2023-03-18T11:15:38;100637.50;;;8.08;71.04
56270;BME280;42176;43.240;27.880;2023-03-18T11:18:13;100646.25;;;8.18;72.19
56270;BME280;42176;43.240;27.880;2023-03-18T11:20:42;100632.16;;;8.18;70.86
56270;BME280;42176;43.240;27.880;2023-03-18T11:23:27;100631.31;;;8.13;70.57
56270;BME280;42176;43.240;27.880;2023-03-18T11:26:19;100628.72;;;8.06;70.69
56270;BME280;42176;43.240;27.880;2023-03-18T11:28:44;100646.25;;;8.14;69.94
56270;BME280;42176;43.240;27.880;2023-03-18T11:31:15;100634.88;;;8.02;70.06
56270;BME280;42176;43.240;27.880;2023-03-18T11:33:42;100629.56;;;8.10;70.79
56270;BME280;42176;43.240;27.880;2023-03-18T11:36:13;100624.25;;;8.12;70.13
56270;BME280;42176;43.240;27.880;2023-03-18T11:38:40;100626.09;;;8.02;71.34
56270;BME280;42176;43.240;27.880;2023-03-18T11:41:36;100614.63;;;8.04;72.00
56270;BME280;42176;43.240;27.880;2023-03-18T11:44:05;100623.44;;;8.03;72.85
56270;BME280;42176;43.240;27.880;2023-03-18T11:48:57;100627.81;;;8.04;73.28
56270;BME280;42176;43.240;27.880;2023-03-18T11:52:00;100628.63;;;8.22;73.11
56270;BME280;42176;43.240;27.880;2023-03-18T11:54:28;100632.97;;;8.37;72.67
56270;BME280;42176;43.240;27.880;2023-03-18T11:57:22;100636.53;;;8.33;72.87
56270;BME280;42176;43.240;27.880;2023-03-18T12:36:18;100637.50;;;8.08;78.07
56270;BME280;42176;43.240;27.880;2023-03-18T12:42:10;100640.16;;;8.01;77.85
56270;BME280;42176;43.240;27.880;2023-03-18T12:46:57;100629.63;;;7.91;78.15
56270;BME280;42176;43.240;27.880;2023-03-18T12:49:30;100646.31;;;7.98;78.78
56270;BME280;42176;43.240;27.880;2023-03-18T12:54:35;100631.41;;;7.80;79.51
56270;BME280;42176;43.240;27.880;2023-03-18T12:57:13;100644.63;;;7.69;80.98
56270;BME280;42176;43.240;27.880;2023-03-18T12:59:51;100622.69;;;7.50;81.59
56270;BME280;42176;43.240;27.880;2023-03-18T13:02:40;100642.91;;;7.40;81.41
56270;BME280;42176;43.240;27.880;2023-03-18T13:05:39;100642.94;;;7.28;83.82
56270;BME280;42176;43.240;27.880;2023-03-18T13:08:27;100653.47;;;7.34;83.35
56270;BME280;42176;43.240;27.880;2023-03-18T13:13:51;100651.72;;;7.27;83.21
56270;BME280;42176;43.240;27.880;2023-03-18T13:16:20;100635.47;;;5.78;92.07
56270;BME280;42176;43.240;27.880;2023-03-18T13:18:51;100639.72;;;5.59;100.00
56270;BME280;42176;43.240;27.880;2023-03-18T13:21:20;100645.28;;;6.02;100.00
56270;BME280;42176;43.240;27.880;2023-03-18T13:27:31;100623.00;;;5.49;100.00
56270;BME280;42176;43.240;27.880;2023-03-18T13:33:35;100627.91;;;6.45;99.88
56270;BME280;42176;43.240;27.880;2023-03-18T13:36:38;100624.81;;;5.53;100.00
56270;BME280;42176;43.240;27.880;2023-03-18T13:42:08;100612.94;;;6.39;100.00
56270;BME280;42176;43.240;27.880;2023-03-18T13:47:05;100628.38;;;5.68;100.00
56270;BME280;42176;43.240;27.880;2023-03-18T13:49:36;100611.84;;;5.93;100.00
56270;BME280;42176;43.240;27.880;2023-03-18T13:52:03;100623.34;;;6.08;100.00
56270;BME280;42176;43.240;27.880;2023-03-18T13:54:35;100614.50;;;5.90;99.97
56270;BME280;42176;43.240;27.880;2023-03-18T13:59:48;100608.94;;;5.41;100.00
56270;BME280;42176;43.240;27.880;2023-03-18T14:02:41;100617.13;;;5.93;100.00
56270;BME280;42176;43.240;27.880;2023-03-18T14:05:37;100621.00;;;5.11;100.00
56270;BME280;42176;43.240;27.880;2023-03-18T14:13:56;100618.38;;;5.14;100.00
56270;BME280;42176;43.240;27.880;2023-03-18T14:22:32;100607.28;;;5.55;100.00
56270;BME280;42176;43.240;27.880;2023-03-18T14:28:17;100622.75;;;5.12;100.00
56270;BME280;42176;43.240;27.880;2023-03-18T14:30:56;100590.50;;;5.33;100.00
56270;BME280;42176;43.240;27.880;2023-03-18T14:40:55;100621.91;;;5.19;100.00
56270;BME280;42176;43.240;27.880;2023-03-18T14:43:28;100607.22;;;5.43;100.00
56270;BME280;42176;43.240;27.880;2023-03-18T14:46:01;100573.91;;;4.38;100.00
56270;BME280;42176;43.240;27.880;2023-03-18T14:48:31;100608.28;;;4.60;100.00
56270;BME280;42176;43.240;27.880;2023-03-18T14:51:04;100613.84;;;4.94;100.00
56270;BME280;42176;43.240;27.880;2023-03-18T14:53:36;100625.44;;;5.21;100.00
56270;BME280;42176;43.240;27.880;2023-03-18T14:56:04;100610.66;;;5.34;100.00